createdAt,value
2023-05-21T00:04:31.652Z,1.50
2023-05-21T00:09:34.955Z,1.37
2023-05-21T00:14:40.935Z,1.80
2023-05-21T00:19:43.647Z,1.80
2023-05-21T00:24:46.501Z,2.00
2023-05-21T00:29:49.219Z,1.73
2023-05-21T00:34:51.981Z,1.90
2023-05-21T00:39:56.331Z,1.98
2023-05-21T00:45:01.002Z,2.47
2023-05-21T00:50:06.938Z,1.92
2023-05-21T00:55:10.504Z,3.25
2023-05-21T01:00:15.006Z,1.80
2023-05-21T01:05:18.306Z,1.80
2023-05-21T01:10:21.060Z,1.90
2023-05-21T01:15:24.097Z,1.90
2023-05-21T01:20:30.680Z,2.20
2023-05-21T01:25:36.450Z,2.35
2023-05-21T01:30:44.187Z,1.90
2023-05-21T01:35:55.986Z,1.97
2023-05-21T01:41:04.448Z,1.50
2023-05-21T01:46:10.936Z,1.60
2023-05-21T01:51:15.010Z,1.70
2023-05-21T01:56:18.182Z,1.77
2023-05-21T02:01:21.209Z,1.67
2023-05-21T02:06:24.250Z,1.58
2023-05-21T02:11:27.111Z,1.60
2023-05-21T02:16:29.926Z,2.03
2023-05-21T02:21:33.004Z,2.25
2023-05-21T02:26:35.985Z,2.50
2023-05-21T02:31:38.655Z,1.90
2023-05-21T02:36:41.977Z,2.25
2023-05-21T02:41:44.746Z,2.73
2023-05-21T02:46:47.747Z,2.70
2023-05-21T02:51:52.583Z,3.20
2023-05-21T02:56:56.061Z,2.70
2023-05-21T03:01:58.715Z,2.27
2023-05-21T03:07:02.466Z,2.13
2023-05-21T03:12:07.101Z,2.40
2023-05-21T03:17:14.214Z,2.17
2023-05-21T03:22:17.029Z,2.35
2023-05-21T03:27:19.730Z,1.40
2023-05-21T03:32:23.956Z,1.40
2023-05-21T03:37:27.929Z,1.30
2023-05-21T03:42:30.770Z,1.52
2023-05-21T03:47:34.305Z,1.70
2023-05-21T03:52:39.676Z,1.20
2023-05-21T03:57:42.980Z,1.70
2023-05-21T04:02:46.105Z,1.42
2023-05-21T04:07:52.882Z,1.20
2023-05-21T04:12:57.215Z,1.10
2023-05-21T04:18:00.802Z,1.25
2023-05-21T04:23:03.965Z,1.23
2023-05-21T04:28:07.564Z,1.10
2023-05-21T04:33:10.385Z,1.20
2023-05-21T04:38:13.179Z,1.40
2023-05-21T04:43:17.636Z,1.03
2023-05-21T04:48:29.732Z,1.50
2023-05-21T04:53:32.489Z,1.02
2023-05-21T04:58:35.315Z,1.10
2023-05-21T05:03:40.928Z,1.10
2023-05-21T05:08:44.887Z,1.75
2023-05-21T05:21:13.687Z,0.83
2023-05-21T05:26:16.568Z,0.90
2023-05-21T05:31:19.385Z,1.25
2023-05-21T05:36:22.890Z,1.00
2023-05-21T05:41:25.613Z,0.95
2023-05-21T05:46:31.414Z,0.80
2023-05-21T05:51:34.413Z,0.87
2023-05-21T05:56:37.217Z,1.30
2023-05-21T06:01:42.791Z,1.20
2023-05-21T06:06:47.738Z,1.00
2023-05-21T06:11:50.781Z,1.10
2023-05-21T06:16:53.965Z,1.13
2023-05-21T06:21:56.869Z,1.30
2023-05-21T06:26:59.805Z,0.90
2023-05-21T06:32:03.944Z,1.08
2023-05-21T06:37:07.568Z,0.90
2023-05-21T06:42:10.342Z,1.10
2023-05-21T06:47:29.532Z,1.00
2023-05-21T06:52:32.119Z,1.30
2023-05-21T06:57:41.335Z,1.60
2023-05-21T07:02:45.190Z,1.00
2023-05-21T07:07:48.035Z,1.58
2023-05-21T07:12:51.528Z,2.10
2023-05-21T07:17:55.768Z,2.53
2023-05-21T07:22:58.477Z,1.80
2023-05-21T07:28:01.390Z,1.70
2023-05-21T07:33:04.472Z,1.83
2023-05-21T07:38:07.367Z,2.20
2023-05-21T07:43:10.298Z,1.30
2023-05-21T07:48:15.970Z,1.80
2023-05-21T07:53:32.682Z,2.87
2023-05-21T07:58:41.501Z,1.95
2023-05-21T08:09:06.547Z,1.53
2023-05-21T08:14:09.351Z,1.60
2023-05-21T08:19:12.376Z,1.88
2023-05-21T08:24:15.819Z,1.63
2023-05-21T08:29:18.458Z,1.73
2023-05-21T08:34:21.459Z,1.70
2023-05-21T08:39:35.624Z,1.97
2023-05-21T08:44:44.848Z,2.03
2023-05-21T08:49:48.462Z,1.77
2023-05-21T08:54:54.675Z,1.80
2023-05-21T08:59:58.855Z,2.13
2023-05-21T09:05:04.851Z,2.08
2023-05-21T09:10:10.408Z,2.00
2023-05-21T09:15:16.126Z,2.03
2023-05-21T09:20:25.397Z,2.05
2023-05-21T09:25:33.828Z,1.65
2023-05-21T09:30:53.771Z,1.57
2023-05-21T09:35:56.903Z,1.77
2023-05-21T09:41:05.795Z,1.38
2023-05-21T09:46:08.510Z,1.45
2023-05-21T09:51:22.934Z,1.50
2023-05-21T09:56:29.359Z,1.25
2023-05-21T10:01:36.422Z,1.50
2023-05-21T10:06:44.072Z,1.77
2023-05-21T10:11:49.986Z,1.48
2023-05-21T10:16:55.100Z,1.38
2023-05-21T10:21:58.419Z,1.40
2023-05-21T10:27:02.904Z,1.10
2023-05-21T10:32:06.514Z,2.20
2023-05-21T10:37:10.304Z,1.45
2023-05-21T10:42:31.186Z,1.27
2023-05-21T10:47:55.118Z,1.02
2023-05-21T10:53:36.956Z,1.15
2023-05-21T10:58:54.526Z,1.17
2023-05-21T11:03:58.053Z,1.10
2023-05-21T11:09:14.329Z,1.25
2023-05-21T11:14:40.365Z,1.83
2023-05-21T11:19:44.121Z,1.50
2023-05-21T11:24:47.779Z,2.08
2023-05-21T11:29:56.200Z,1.70
2023-05-21T11:35:04.212Z,2.07
2023-05-21T11:40:27.535Z,1.30
2023-05-21T11:45:32.909Z,1.10
2023-05-21T11:50:36.012Z,1.50
2023-05-21T11:55:43.923Z,1.95
2023-05-21T12:00:46.517Z,2.13
2023-05-21T12:06:06.033Z,1.90
2023-05-21T12:11:08.742Z,1.43
2023-05-21T12:16:12.286Z,1.85
2023-05-21T12:21:15.554Z,1.42
2023-05-21T12:26:18.253Z,1.40
2023-05-21T12:31:25.104Z,1.17
2023-05-21T12:36:30.696Z,1.23
2023-05-21T12:41:33.379Z,1.40
2023-05-21T12:46:37.392Z,1.60
2023-05-21T12:51:40.625Z,1.20
2023-05-21T12:56:46.856Z,1.13
2023-05-21T13:01:49.600Z,1.30
2023-05-21T13:06:52.331Z,1.80
2023-05-21T13:11:55.007Z,1.30
2023-05-21T13:16:58.316Z,1.23
2023-05-21T13:22:01.111Z,1.13
2023-05-21T13:27:03.952Z,1.20
2023-05-21T13:32:06.739Z,1.30
2023-05-21T13:37:09.381Z,1.00
2023-05-21T13:42:13.937Z,1.50
2023-05-21T13:47:16.950Z,1.00
2023-05-21T13:52:20.352Z,1.20
2023-05-21T13:57:23.001Z,1.40
2023-05-21T14:02:29.151Z,0.60
2023-05-21T14:07:31.761Z,0.70
2023-05-21T14:12:34.971Z,0.70
2023-05-21T14:17:40.653Z,1.08
2023-05-21T14:22:43.424Z,1.10
2023-05-21T14:27:46.124Z,1.10
2023-05-21T14:32:48.730Z,1.13
2023-05-21T14:37:51.406Z,1.00
2023-05-21T14:42:54.464Z,1.00
2023-05-21T14:47:57.165Z,1.10
2023-05-21T14:52:59.677Z,1.05
2023-05-21T14:58:03.680Z,0.80
2023-05-21T15:03:07.003Z,0.93
2023-05-21T15:08:10.069Z,0.90
2023-05-21T15:13:12.766Z,0.80
2023-05-21T15:18:16.414Z,0.80
2023-05-21T15:23:19.319Z,0.60
2023-05-21T15:28:24.343Z,0.57
2023-05-21T15:33:26.872Z,0.70
2023-05-21T15:38:29.523Z,0.52
2023-05-21T15:43:32.563Z,0.50
2023-05-21T15:48:35.114Z,0.70
2023-05-21T15:53:37.664Z,1.13
2023-05-21T15:58:40.336Z,0.55
2023-05-21T16:03:43.013Z,0.90
2023-05-21T16:08:46.176Z,0.80
2023-05-21T16:13:48.787Z,0.90
2023-05-21T16:18:54.576Z,0.80
2023-05-21T16:23:57.084Z,0.90
2023-05-21T16:29:00.294Z,1.05
2023-05-21T16:34:02.891Z,1.27
2023-05-21T16:39:05.688Z,1.60
2023-05-21T16:44:08.432Z,1.45
2023-05-21T16:49:11.017Z,1.90
2023-05-21T16:54:13.940Z,1.43
2023-05-21T16:59:16.710Z,1.13
2023-05-21T17:04:19.331Z,1.02
2023-05-21T17:09:22.001Z,1.10
2023-05-21T17:14:33.924Z,1.10
2023-05-21T17:19:37.744Z,1.48
2023-05-21T17:24:40.549Z,1.05
2023-05-21T17:29:43.091Z,1.20
2023-05-21T17:34:46.075Z,0.98
2023-05-21T17:40:07.327Z,1.33
2023-05-21T17:45:10.586Z,1.70
2023-05-21T17:50:13.314Z,2.80
2023-05-21T17:55:15.934Z,2.92
2023-05-21T18:00:18.884Z,2.70
2023-05-21T18:05:21.577Z,2.50
2023-05-21T18:10:26.649Z,1.83
2023-05-21T18:15:29.210Z,1.23
2023-05-21T18:20:31.804Z,1.80
2023-05-21T18:25:36.054Z,2.10
2023-05-21T18:30:39.005Z,2.10
2023-05-21T18:35:44.450Z,1.30
2023-05-21T18:40:47.366Z,1.92
2023-05-21T18:45:49.991Z,1.52
2023-05-21T18:50:53.147Z,1.57
2023-05-21T18:55:55.836Z,1.57
2023-05-21T19:00:58.408Z,2.00
2023-05-21T19:06:01.128Z,1.50
2023-05-21T19:11:04.095Z,1.10
2023-05-21T19:16:11.303Z,1.80
2023-05-21T19:21:14.156Z,1.45
2023-05-21T19:26:17.117Z,1.40
2023-05-21T19:31:20.868Z,1.30
2023-05-21T19:36:23.598Z,1.58
2023-05-21T19:41:26.761Z,1.20
2023-05-21T19:46:29.493Z,1.40
2023-05-21T19:51:33.426Z,1.83
2023-05-21T19:56:36.563Z,2.38
2023-05-21T20:01:40.536Z,2.70
2023-05-21T20:06:43.239Z,2.83
2023-05-21T20:11:45.834Z,3.17
2023-05-21T20:16:48.792Z,4.13
2023-05-21T20:21:51.441Z,3.70
2023-05-21T20:26:55.190Z,2.85
2023-05-21T20:31:58.209Z,2.20
2023-05-21T20:37:00.811Z,1.40
2023-05-21T20:42:06.643Z,1.42
2023-05-21T20:47:10.565Z,1.45
2023-05-21T20:52:14.519Z,1.80
2023-05-21T20:57:17.320Z,2.75
2023-05-21T21:02:20.973Z,2.85
2023-05-21T21:07:23.712Z,3.00
2023-05-21T21:12:26.988Z,2.80
2023-05-21T21:17:29.824Z,3.17
2023-05-21T21:22:32.504Z,3.40
2023-05-21T21:27:35.317Z,2.80
2023-05-21T21:32:38.152Z,2.95
2023-05-21T21:37:41.056Z,3.28
2023-05-21T21:42:43.736Z,3.10
2023-05-21T21:47:46.393Z,2.72
2023-05-21T21:52:49.249Z,2.60
2023-05-21T21:57:51.940Z,2.00
2023-05-21T22:02:54.713Z,1.65
2023-05-21T22:07:57.430Z,1.35
2023-05-21T22:13:02.895Z,1.37
2023-05-21T22:18:09.870Z,1.33
2023-05-21T22:23:12.688Z,0.90
2023-05-21T22:28:15.281Z,1.33
2023-05-21T22:33:17.996Z,1.10
2023-05-21T22:38:21.108Z,1.35
2023-05-21T22:43:23.812Z,1.60
2023-05-21T22:48:26.742Z,1.60
2023-05-21T22:53:29.345Z,1.13
2023-05-21T22:58:32.155Z,1.23
2023-05-21T23:03:34.636Z,1.10
2023-05-21T23:08:37.261Z,1.23
2023-05-21T23:13:39.861Z,1.55
2023-05-21T23:18:42.364Z,1.33
2023-05-21T23:23:44.915Z,0.93
2023-05-21T23:28:47.502Z,1.00
2023-05-21T23:33:51.542Z,1.00
2023-05-21T23:38:54.136Z,0.90
2023-05-21T23:43:56.769Z,0.90
2023-05-21T23:48:59.873Z,0.80
2023-05-21T23:54:02.562Z,0.80
2023-05-21T23:59:05.217Z,0.70
